createdAt,value
2022-12-18T00:00:22.077Z,501.0602006688963
2022-12-18T00:06:43.429Z,496.74581939799333
2022-12-18T00:13:09.888Z,491.38127090301003
2022-12-18T00:26:05.509Z,486.7759197324415
2022-12-18T00:32:28.411Z,483.74247491638795
2022-12-18T00:38:50.974Z,477.59866220735785
2022-12-18T00:45:29.817Z,482.8628762541806
2022-12-18T00:52:22.481Z,472.9163879598662
2022-12-18T00:58:49.435Z,467.67224080267556
2022-12-18T01:05:16.293Z,474.8294314381271
2022-12-18T01:11:38.511Z,459.27090301003346
2022-12-18T01:17:59.674Z,457.11371237458195
2022-12-18T01:24:24.172Z,440.5217391304348
2022-12-18T01:34:37.353Z,447.7926421404682
2022-12-18T01:44:36.911Z,431.5819397993311
2022-12-18T01:50:58.360Z,422.3444816053512
2022-12-18T01:57:24.443Z,417.33779264214047
2022-12-18T02:03:48.020Z,404.75919732441474
2022-12-18T02:10:11.538Z,399.3344481605351
2022-12-18T02:16:33.513Z,401.3076923076923
2022-12-18T02:32:18.159Z,403.2073578595318
2022-12-18T02:38:39.987Z,362.1304347826087
2022-12-18T02:45:06.157Z,359.943143812709
2022-12-18T03:03:51.264Z,321.5183946488294
2022-12-18T03:10:13.556Z,319.10033444816054
2022-12-18T03:16:35.477Z,322.67892976588627
2022-12-18T03:22:57.264Z,300.33110367892976
2022-12-18T03:29:46.404Z,306.39799331103677
2022-12-18T03:36:07.108Z,300.11036789297657
2022-12-18T03:48:34.526Z,276.5785953177257
2022-12-18T03:57:26.579Z,273.88628762541805
2022-12-18T04:07:51.866Z,271.7926421404682
2022-12-18T04:16:02.817Z,252.67558528428094
2022-12-18T04:22:26.768Z,252.08361204013377
2022-12-18T04:33:06.813Z,246.85284280936455
2022-12-18T04:39:28.692Z,252.23411371237458
2022-12-18T04:45:50.913Z,257.9364548494983
2022-12-18T04:52:12.087Z,244.95317725752508
2022-12-18T04:58:33.380Z,237.77257525083613
2022-12-18T05:04:55.329Z,241.8428093645485
2022-12-18T05:11:17.088Z,235.8227424749164
2022-12-18T05:20:01.574Z,230.1371237458194
2022-12-18T05:27:03.970Z,232.0
2022-12-18T05:33:24.118Z,220.27759197324414
2022-12-18T05:39:44.795Z,223.77591973244148
2022-12-18T05:46:05.647Z,220.1103678929766
2022-12-18T05:52:25.601Z,219.76923076923077
2022-12-18T05:58:45.129Z,229.49163879598663
2022-12-18T06:05:05.977Z,229.85284280936455
2022-12-18T06:11:25.424Z,222.98327759197323
2022-12-18T06:17:47.263Z,221.2876254180602
2022-12-18T06:24:08.214Z,217.54515050167225
2022-12-18T06:32:35.920Z,219.64882943143812
2022-12-18T06:39:00.719Z,218.59866220735785
2022-12-18T06:48:39.513Z,198.14715719063545
2022-12-18T06:55:00.380Z,198.75585284280936
2022-12-18T07:01:19.821Z,202.61872909698997
2022-12-18T07:11:57.778Z,206.8160535117057
2022-12-18T07:18:17.446Z,198.55518394648828
2022-12-18T07:24:39.066Z,200.61872909698997
2022-12-18T07:31:00.197Z,204.0133779264214
2022-12-18T07:37:27.491Z,193.43478260869566
2022-12-18T07:44:51.480Z,202.5418060200669
2022-12-18T07:54:49.106Z,207.14046822742475
2022-12-18T08:01:13.604Z,211.76588628762542
2022-12-18T08:07:40.418Z,219.57859531772576
2022-12-18T08:18:14.410Z,204.20735785953178
2022-12-18T08:24:42.061Z,199.69565217391303
2022-12-18T08:38:50.615Z,193.7123745819398
2022-12-18T08:45:18.167Z,208.06020066889633
2022-12-18T08:51:47.501Z,206.19397993311037
2022-12-18T08:58:14.891Z,213.63210702341138
2022-12-18T09:04:39.129Z,205.03678929765886
2022-12-18T09:11:04.037Z,212.22408026755852
2022-12-18T09:24:45.408Z,202.84615384615384
2022-12-18T09:31:09.706Z,209.93979933110367
2022-12-18T09:38:45.085Z,216.09364548494983
2022-12-18T09:45:09.530Z,215.54849498327758
2022-12-18T09:51:31.962Z,209.32441471571906
2022-12-18T09:57:53.159Z,227.1304347826087
2022-12-18T10:10:09.511Z,214.10702341137124
2022-12-18T10:17:50.164Z,214.50167224080266
2022-12-18T10:24:11.879Z,215.45484949832775
2022-12-18T10:30:33.171Z,207.5819397993311
2022-12-18T10:36:55.047Z,208.685618729097
2022-12-18T10:48:05.305Z,199.29096989966555
2022-12-18T10:59:22.904Z,201.65217391304347
2022-12-18T11:06:07.276Z,194.68227424749165
2022-12-18T11:12:29.736Z,198.8160535117057
2022-12-18T11:18:52.688Z,192.2408026755853
2022-12-18T11:41:09.784Z,184.63879598662209
2022-12-18T12:01:23.864Z,168.45150501672242
2022-12-18T12:11:34.002Z,162.5819397993311
2022-12-18T12:25:10.238Z,173.65551839464882
2022-12-18T12:33:21.811Z,165.2742474916388
2022-12-18T12:39:54.434Z,166.49163879598663
2022-12-18T12:46:28.837Z,157.76923076923077
2022-12-18T12:53:51.247Z,164.87625418060202
2022-12-18T13:00:31.495Z,164.70903010033445
2022-12-18T13:10:27.049Z,175.0334448160535
2022-12-18T13:16:52.978Z,176.7123745819398
2022-12-18T13:31:54.177Z,177.34448160535118
2022-12-18T13:38:24.052Z,172.1839464882943
2022-12-18T13:44:47.117Z,174.2742474916388
2022-12-18T13:51:12.085Z,181.42809364548495
2022-12-18T13:57:35.412Z,175.5418060200669
2022-12-18T14:04:00.867Z,176.23745819397993
2022-12-18T14:10:47.730Z,162.76588628762542
2022-12-18T14:17:17.675Z,170.06688963210703
2022-12-18T14:23:41.954Z,172.48829431438128
2022-12-18T14:31:50.492Z,158.74916387959865
2022-12-18T14:40:40.904Z,168.16053511705687
2022-12-18T14:48:22.934Z,169.46822742474916
2022-12-18T14:54:51.091Z,166.8963210702341
2022-12-18T15:01:17.771Z,169.05351170568562
2022-12-18T15:07:41.460Z,165.08695652173913
2022-12-18T15:27:25.820Z,172.46822742474916
2022-12-18T15:39:13.221Z,163.2608695652174
2022-12-18T15:45:34.764Z,174.08361204013377
2022-12-18T15:51:55.930Z,169.91638795986623
2022-12-18T15:59:17.404Z,172.09364548494983
2022-12-18T16:05:39.952Z,171.1571906354515
2022-12-18T16:23:25.485Z,178.80267558528428
2022-12-18T16:29:47.801Z,173.64214046822744
2022-12-18T16:36:10.983Z,180.9665551839465
2022-12-18T16:46:03.788Z,178.73244147157192
2022-12-18T17:02:24.537Z,179.01672240802677
2022-12-18T17:08:49.715Z,186.2742474916388
2022-12-18T17:15:13.453Z,187.58862876254182
2022-12-18T17:21:37.713Z,193.3277591973244
2022-12-18T17:30:14.775Z,209.39464882943145
2022-12-18T17:36:38.101Z,210.10702341137124
2022-12-18T17:43:00.804Z,208.40133779264215
2022-12-18T17:49:56.199Z,211.91638795986623
2022-12-18T17:58:20.391Z,204.68896321070235
2022-12-18T18:04:42.210Z,214.42809364548495
2022-12-18T18:11:08.774Z,216.45484949832775
2022-12-18T18:18:28.080Z,233.63879598662209
2022-12-18T18:24:50.145Z,227.1438127090301
2022-12-18T18:31:13.040Z,242.79264214046822
2022-12-18T18:37:35.233Z,230.62541806020067
2022-12-18T18:43:58.770Z,238.9598662207358
2022-12-18T18:50:21.304Z,231.96321070234114
2022-12-18T18:57:19.042Z,244.30100334448161
2022-12-18T19:03:42.158Z,238.50501672240802
2022-12-18T19:17:29.532Z,236.31772575250835
2022-12-18T19:23:52.068Z,238.73578595317727
2022-12-18T19:30:22.509Z,226.27090301003344
2022-12-18T19:48:41.789Z,232.53846153846155
2022-12-18T19:55:04.481Z,225.26755852842808
2022-12-18T20:07:28.380Z,222.28428093645485
2022-12-18T20:13:54.179Z,206.4648829431438
2022-12-18T20:34:48.658Z,218.01003344481606
2022-12-18T20:41:38.258Z,212.78929765886286
2022-12-18T20:48:23.569Z,214.07692307692307
2022-12-18T20:56:59.346Z,217.23745819397993
2022-12-18T21:03:33.799Z,207.94648829431438
2022-12-18T21:10:12.580Z,218.12709030100334
2022-12-18T21:20:00.390Z,212.37792642140468
2022-12-18T21:26:20.757Z,215.49498327759198
2022-12-18T21:32:41.528Z,208.98327759197323
2022-12-18T21:44:44.501Z,203.83277591973246
2022-12-18T21:51:03.896Z,200.83277591973246
2022-12-18T21:57:27.509Z,197.92307692307693
2022-12-18T22:08:07.386Z,191.64548494983276
2022-12-18T22:14:27.835Z,189.57190635451505
2022-12-18T22:20:49.223Z,187.2742474916388
2022-12-18T22:27:10.493Z,185.9264214046823
2022-12-18T22:33:30.767Z,185.7826086956522
2022-12-18T22:39:51.271Z,184.53177257525084
2022-12-18T22:46:13.990Z,185.74247491638795
2022-12-18T22:52:35.184Z,181.2809364548495
2022-12-18T22:58:55.454Z,184.74247491638795
2022-12-18T23:05:16.215Z,187.50501672240802
2022-12-18T23:11:36.013Z,190.21070234113714
2022-12-18T23:17:57.144Z,191.0066889632107
2022-12-18T23:24:17.997Z,190.32441471571906
2022-12-18T23:30:38.588Z,194.70903010033445
2022-12-18T23:36:57.893Z,196.80936454849498
2022-12-18T23:43:18.947Z,191.7826086956522
2022-12-18T23:50:06.784Z,184.93645484949832
2022-12-18T23:56:28.394Z,182.9297658862876
